Time;durP1;ratioP1;P1;durP2;ratioP2;P2;SDS_P1;SDS_P2;PMS_P1;PMS_P2;Temp;Humidity;BMP_temperature;BMP_pressure;BME280_temperature;BME280_humidity;BME280_pressure;Samples;Min_cycle;Max_cycle;Signal;HPM_P1;HPM_P2
2023/08/13 00:02:49;;;;;;;7.82;5.00;;;;;;;;;;3868809;36;43433;-58
2023/08/13 00:05:36;;;;;;;7.57;5.22;;;;;;;;;;4426691;32;59208;-58
2023/08/13 00:08:22;;;;;;;8.07;5.00;;;;;;;;;;4426330;32;70781;-60
2023/08/13 00:11:11;;;;;;;8.38;5.87;;;;;;;;;;4414115;32;69514;-58
2023/08/13 00:13:57;;;;;;;8.52;5.20;;;;;;;;;;4403505;32;67957;-57
2023/08/13 00:16:45;;;;;;;8.35;4.70;;;;;;;;;;4411296;32;72387;-58
2023/08/13 00:19:31;;;;;;;7.20;5.10;;;;;;;;;;4426355;32;66314;-58
2023/08/13 00:22:18;;;;;;;8.82;5.35;;;;;;;;;;4411399;32;67494;-58
2023/08/13 00:25:05;;;;;;;8.38;5.30;;;;;;;;;;4414355;32;60212;-58
2023/08/13 00:27:51;;;;;;;10.60;5.60;;;;;;;;;;4413914;32;71625;-58
2023/08/13 00:30:37;;;;;;;6.85;4.65;;;;;;;;;;4426201;32;65463;-58
2023/08/13 00:33:24;;;;;;;8.70;4.65;;;;;;;;;;4426053;32;66760;-59
2023/08/13 00:36:11;;;;;;;6.93;4.95;;;;;;;;;;4426206;32;59780;-58
2023/08/13 00:38:57;;;;;;;10.38;5.37;;;;;;;;;;4411028;32;71727;-58
2023/08/13 00:41:44;;;;;;;6.85;4.87;;;;;;;;;;4413887;32;68978;-58
2023/08/13 00:44:31;;;;;;;6.95;4.35;;;;;;;;;;4413783;32;68080;-58
2023/08/13 00:47:17;;;;;;;5.90;4.40;;;;;;;;;;4425924;32;72105;-58
2023/08/13 00:50:04;;;;;;;6.65;4.43;;;;;;;;;;4403231;32;66286;-58
2023/08/13 00:52:51;;;;;;;8.13;4.50;;;;;;;;;;4413779;32;68454;-58
2023/08/13 00:55:38;;;;;;;5.50;3.97;;;;;;;;;;4425867;32;66429;-58
2023/08/13 00:58:24;;;;;;;6.55;4.53;;;;;;;;;;4425658;32;70827;-58
2023/08/13 01:01:12;;;;;;;6.95;4.32;;;;;;;;;;4425516;32;66013;-58
2023/08/13 01:03:58;;;;;;;6.40;4.05;;;;;;;;;;4425874;32;67459;-58
2023/08/13 01:07:11;;;;;;;5.85;3.72;;;;;;;;;;4413856;32;60245;-58
2023/08/13 01:10:14;;;;;;;6.45;4.47;;;;;;;;;;4399936;32;71234;-57
2023/08/13 01:13:10;;;;;;;6.82;4.10;;;;;;;;;;4420048;32;69060;-58
2023/08/13 01:15:57;;;;;;;6.90;5.00;;;;;;;;;;4392451;32;67780;-58
2023/08/13 01:18:46;;;;;;;6.82;4.45;;;;;;;;;;4392899;32;60642;-58
2023/08/13 01:21:32;;;;;;;8.23;4.37;;;;;;;;;;4403012;32;69606;-58
2023/08/13 01:24:18;;;;;;;;;;;;;;;;;;4415668;32;69379;-58
2023/08/13 01:27:52;;;;;;;8.00;5.50;;;;;;;;;;4415298;32;67565;-57
2023/08/13 01:30:52;;;;;;;6.20;4.75;;;;;;;;;;4369083;32;71213;-58
2023/08/13 01:33:41;;;;;;;8.35;5.10;;;;;;;;;;4403078;32;66313;-58
2023/08/13 01:36:28;;;;;;;8.63;5.78;;;;;;;;;;4392384;32;67895;-58
2023/08/13 01:39:15;;;;;;;9.63;5.30;;;;;;;;;;4415217;32;59074;-57
2023/08/13 01:42:01;;;;;;;8.70;5.12;;;;;;;;;;4389360;32;71219;-58
2023/08/13 01:44:48;;;;;;;10.07;5.55;;;;;;;;;;4400154;32;66847;-57
2023/08/13 01:47:35;;;;;;;7.18;5.50;;;;;;;;;;4400329;32;68105;-57
2023/08/13 01:50:22;;;;;;;;;;;;;;;;;;4403275;32;59089;-58
2023/08/13 01:53:08;;;;;;;6.87;5.15;;;;;;;;;;4415170;32;69942;-58
2023/08/13 01:55:55;;;;;;;8.00;4.95;;;;;;;;;;4416839;32;69682;-58
2023/08/13 01:58:43;;;;;;;9.07;5.32;;;;;;;;;;4421885;32;67163;-58
2023/08/13 02:01:29;;;;;;;8.55;5.07;;;;;;;;;;4421452;32;71244;-59
2023/08/13 02:04:16;;;;;;;7.82;5.32;;;;;;;;;;4408921;32;65504;-58
2023/08/13 02:07:02;;;;;;;8.20;5.65;;;;;;;;;;4417912;32;67205;-58
2023/08/13 02:09:47;;;;;;;7.07;4.93;;;;;;;;;;3870610;36;43898;-58
2023/08/13 02:12:34;;;;;;;9.38;5.45;;;;;;;;;;4416092;32;58986;-58
2023/08/13 02:15:21;;;;;;;8.95;5.50;;;;;;;;;;4426353;32;70420;-58
2023/08/13 02:18:08;;;;;;;9.40;5.37;;;;;;;;;;4426351;32;69625;-58
2023/08/13 02:20:55;;;;;;;7.20;5.53;;;;;;;;;;4426519;32;67567;-57
2023/08/13 02:23:41;;;;;;;8.60;5.82;;;;;;;;;;4426175;32;70816;-58
2023/08/13 02:26:28;;;;;;;10.95;6.10;;;;;;;;;;4414370;32;65083;-57
2023/08/13 02:29:15;;;;;;;8.38;5.32;;;;;;;;;;4411411;32;67241;-58
2023/08/13 02:32:01;;;;;;;;;;;;;;;;;;4414586;32;59185;-59
2023/08/13 02:34:48;;;;;;;9.17;5.33;;;;;;;;;;4426452;32;72322;-58
2023/08/13 02:37:35;;;;;;;6.15;4.68;;;;;;;;;;4414023;32;65587;-58
2023/08/13 02:40:22;;;;;;;9.15;5.03;;;;;;;;;;4411088;32;68153;-58
2023/08/13 02:43:10;;;;;;;8.60;5.12;;;;;;;;;;4411474;32;60876;-58
2023/08/13 02:45:56;;;;;;;7.20;4.93;;;;;;;;;;4413793;32;70349;-59
2023/08/13 02:48:42;;;;;;;7.60;4.85;;;;;;;;;;4425670;32;69063;-58
2023/08/13 02:51:30;;;;;;;7.82;5.18;;;;;;;;;;4413895;32;67542;-58
2023/08/13 02:54:16;;;;;;;6.75;4.62;;;;;;;;;;4403048;32;70946;-58
2023/08/13 02:57:03;;;;;;;6.12;4.95;;;;;;;;;;4413981;32;64988;-58
2023/08/13 02:59:49;;;;;;;7.60;4.62;;;;;;;;;;4425791;32;68256;-58
2023/08/13 03:02:36;;;;;;;7.97;4.90;;;;;;;;;;4425870;32;66691;-58
2023/08/13 03:05:22;;;;;;;7.65;4.50;;;;;;;;;;4425583;32;71770;-59
2023/08/13 03:08:09;;;;;;;7.25;4.50;;;;;;;;;;4410481;32;66816;-58
2023/08/13 03:10:56;;;;;;;5.80;3.95;;;;;;;;;;4410879;32;68465;-58
2023/08/13 03:13:43;;;;;;;6.90;4.18;;;;;;;;;;4425826;32;59223;-58
2023/08/13 03:16:30;;;;;;;5.93;4.30;;;;;;;;;;4413595;32;70605;-58
2023/08/13 03:19:16;;;;;;;7.82;4.15;;;;;;;;;;4410986;32;68180;-58
2023/08/13 03:22:04;;;;;;;6.70;4.03;;;;;;;;;;4392341;32;67139;-58
2023/08/13 03:24:51;;;;;;;5.93;3.90;;;;;;;;;;4415550;32;60150;-58
2023/08/13 03:27:37;;;;;;;;;;;;;;;;;;4403421;32;70190;-58
2023/08/13 03:30:25;;;;;;;4.95;3.70;;;;;;;;;;4415321;32;69350;-58
2023/08/13 03:33:11;;;;;;;5.32;3.45;;;;;;;;;;4415208;32;68354;-58
2023/08/13 03:35:59;;;;;;;6.95;3.87;;;;;;;;;;4415156;32;71926;-58
2023/08/13 03:38:46;;;;;;;6.55;3.78;;;;;;;;;;4403206;32;65580;-58
2023/08/13 03:41:32;;;;;;;7.37;3.72;;;;;;;;;;4400188;32;68611;-57
2023/08/13 03:44:19;;;;;;;5.43;3.47;;;;;;;;;;4403313;32;59888;-57
2023/08/13 03:47:06;;;;;;;6.47;3.65;;;;;;;;;;4414953;32;70396;-57
2023/08/13 03:49:52;;;;;;;4.82;3.30;;;;;;;;;;4402624;32;66322;-58
2023/08/13 03:52:39;;;;;;;8.75;4.18;;;;;;;;;;4402980;32;66828;-58
2023/08/13 03:55:26;;;;;;;7.53;3.30;;;;;;;;;;4415065;32;59602;-58
2023/08/13 03:58:13;;;;;;;4.53;3.22;;;;;;;;;;4402630;32;70650;-58
2023/08/13 04:01:05;;;;;;;;;;;;;;;;;;4381885;32;69071;-58
2023/08/13 04:03:52;;;;;;;4.75;3.17;;;;;;;;;;4414979;32;67652;-58
2023/08/13 04:06:40;;;;;;;4.20;2.83;;;;;;;;;;4402848;32;70861;-58
2023/08/13 04:09:26;;;;;;;9.27;3.05;;;;;;;;;;4414405;32;65771;-58
2023/08/13 04:12:12;;;;;;;;;;;;;;;;;;4400529;32;68316;-58
2023/08/13 04:14:59;;;;;;;4.83;3.17;;;;;;;;;;4414937;32;67771;-58
2023/08/13 04:17:46;;;;;;;4.12;2.85;;;;;;;;;;4402529;32;70850;-58
2023/08/13 04:20:32;;;;;;;3.15;2.62;;;;;;;;;;4389028;32;66630;-58
2023/08/13 04:23:19;;;;;;;6.15;2.92;;;;;;;;;;4402653;32;66452;-58
2023/08/13 04:26:07;;;;;;;4.30;2.60;;;;;;;;;;4402956;32;59409;-58
2023/08/13 04:28:54;;;;;;;3.15;2.50;;;;;;;;;;4414488;32;70900;-58
2023/08/13 04:31:41;;;;;;;4.00;2.55;;;;;;;;;;4398745;32;70409;-58
2023/08/13 04:34:27;;;;;;;4.05;2.65;;;;;;;;;;4402461;32;66479;-58
2023/08/13 04:37:14;;;;;;;;;;;;;;;;;;4415134;32;59148;-58
2023/08/13 04:40:00;;;;;;;5.40;2.75;;;;;;;;;;4402488;32;70047;-58
2023/08/13 04:42:48;;;;;;;2.70;2.50;;;;;;;;;;4399522;32;69724;-58
2023/08/13 04:45:34;;;;;;;4.60;2.42;;;;;;;;;;4402224;32;66789;-58
2023/08/13 04:48:40;;;;;;;3.10;2.40;;;;;;;;;;4414194;32;70883;-58
2023/08/13 04:51:27;;;;;;;3.45;2.37;;;;;;;;;;4414227;32;65732;-58
2023/08/13 04:54:14;;;;;;;3.47;2.55;;;;;;;;;;4414281;32;67901;-58
2023/08/13 04:57:00;;;;;;;4.28;2.70;;;;;;;;;;4414475;32;59375;-58
2023/08/13 04:59:48;;;;;;;5.70;2.70;;;;;;;;;;4401896;32;70570;-59
2023/08/13 05:02:35;;;;;;;4.22;2.65;;;;;;;;;;4399339;32;66743;-58
2023/08/13 05:05:21;;;;;;;4.30;2.80;;;;;;;;;;4414196;32;66760;-59
2023/08/13 05:08:09;;;;;;;2.85;2.40;;;;;;;;;;4413755;32;59346;-59
2023/08/13 05:10:55;;;;;;;4.05;2.47;;;;;;;;;;4402098;32;69645;-58
2023/08/13 05:13:42;;;;;;;3.87;2.30;;;;;;;;;;4401973;32;69553;-58
2023/08/13 05:16:30;;;;;;;3.37;2.50;;;;;;;;;;4413944;32;67678;-58
2023/08/13 05:19:16;;;;;;;4.62;2.47;;;;;;;;;;4413994;32;71391;-59
2023/08/13 05:22:03;;;;;;;3.72;2.67;;;;;;;;;;4413988;32;66049;-58
2023/08/13 05:24:49;;;;;;;4.43;2.78;;;;;;;;;;4413955;32;67405;-59
2023/08/13 05:27:37;;;;;;;4.30;2.60;;;;;;;;;;4414005;32;66453;-58
2023/08/13 05:30:23;;;;;;;;;;;;;;;;;;4413983;32;71815;-58
2023/08/13 05:33:10;;;;;;;4.53;2.67;;;;;;;;;;4413881;32;65991;-58
2023/08/13 05:35:56;;;;;;;3.45;2.70;;;;;;;;;;4413875;32;66572;-58
2023/08/13 05:38:43;;;;;;;4.93;2.67;;;;;;;;;;4401906;32;59948;-58
2023/08/13 05:41:30;;;;;;;3.97;2.40;;;;;;;;;;4413574;32;70451;-58
2023/08/13 05:44:17;;;;;;;3.25;2.50;;;;;;;;;;4413429;32;69517;-58
2023/08/13 05:47:03;;;;;;;;;;;;;;;;;;4413913;32;67795;-58
2023/08/13 05:49:50;;;;;;;4.97;2.67;;;;;;;;;;4398830;32;71469;-58
2023/08/13 05:52:37;;;;;;;8.18;2.60;;;;;;;;;;4401453;32;70130;-58
2023/08/13 05:55:23;;;;;;;5.55;2.85;;;;;;;;;;4401393;32;69568;-58
2023/08/13 05:58:10;;;;;;;4.97;2.70;;;;;;;;;;4413664;32;67590;-59
2023/08/13 06:00:56;;;;;;;5.07;2.72;;;;;;;;;;4401508;32;71948;-58
2023/08/13 06:03:43;;;;;;;4.12;2.70;;;;;;;;;;4401451;32;64960;-58
2023/08/13 06:06:29;;;;;;;5.20;2.65;;;;;;;;;;4401206;32;67834;-58
2023/08/13 06:09:16;;;;;;;5.50;2.87;;;;;;;;;;4413264;32;59174;-58
2023/08/13 06:12:03;;;;;;;3.65;2.70;;;;;;;;;;4390508;32;70176;-58
2023/08/13 06:14:49;;;;;;;4.28;2.97;;;;;;;;;;4387650;32;70181;-59
2023/08/13 06:17:36;;;;;;;4.22;2.70;;;;;;;;;;4401219;32;67622;-58
2023/08/13 06:20:23;;;;;;;4.37;2.80;;;;;;;;;;4401705;32;58913;-58
2023/08/13 06:23:10;;;;;;;6.00;2.90;;;;;;;;;;4413372;32;69368;-59
2023/08/13 06:25:57;;;;;;;5.50;2.97;;;;;;;;;;4401109;32;68438;-58
2023/08/13 06:28:43;;;;;;;4.82;2.97;;;;;;;;;;4413265;32;67735;-58
2023/08/13 06:31:35;;;;;;;3.83;2.60;;;;;;;;;;4401281;32;70496;-59
2023/08/13 06:34:22;;;;;;;3.03;2.67;;;;;;;;;;4413204;32;65962;-57
2023/08/13 06:37:09;;;;;;;4.80;3.30;;;;;;;;;;4398384;32;68649;-58
2023/08/13 06:39:55;;;;;;;7.37;3.15;;;;;;;;;;4413262;32;60027;-58
2023/08/13 06:42:42;;;;;;;8.50;2.90;;;;;;;;;;4400835;32;71461;-58
2023/08/13 06:45:29;;;;;;;3.90;2.70;;;;;;;;;;4413159;32;66055;-58
2023/08/13 06:48:15;;;;;;;3.55;3.00;;;;;;;;;;4398123;32;68646;-58
2023/08/13 06:51:02;;;;;;;5.15;2.72;;;;;;;;;;4413138;32;60166;-58
2023/08/13 06:53:49;;;;;;;3.37;2.50;;;;;;;;;;4412894;32;69203;-58
2023/08/13 06:56:35;;;;;;;;;;;;;;;;;;4400893;32;70437;-58
2023/08/13 06:59:22;;;;;;;3.87;2.50;;;;;;;;;;4403945;32;68005;-59
2023/08/13 07:02:09;;;;;;;4.25;2.90;;;;;;;;;;4415857;32;70826;-58
2023/08/13 07:04:55;;;;;;;3.70;2.60;;;;;;;;;;4415280;32;69531;-58
2023/08/13 07:07:42;;;;;;;5.03;2.72;;;;;;;;;;4403004;32;69497;-59
2023/08/13 07:10:29;;;;;;;4.97;2.87;;;;;;;;;;4415438;32;67609;-59
2023/08/13 07:13:15;;;;;;;4.75;2.90;;;;;;;;;;4403022;32;71569;-58
2023/08/13 07:16:02;;;;;;;4.60;3.10;;;;;;;;;;4403499;32;66017;-57
2023/08/13 07:18:48;;;;;;;3.55;2.87;;;;;;;;;;4415411;32;67350;-58
2023/08/13 07:21:36;;;;;;;3.78;2.67;;;;;;;;;;4415350;32;59274;-59
2023/08/13 07:24:22;;;;;;;5.50;3.00;;;;;;;;;;4415322;32;69647;-58
2023/08/13 07:27:11;;;;;;;5.35;2.85;;;;;;;;;;4415155;32;69404;-58
2023/08/13 07:29:57;;;;;;;5.15;2.97;;;;;;;;;;4415083;32;68285;-58
2023/08/13 07:32:43;;;;;;;5.30;2.60;;;;;;;;;;4403614;32;59644;-58
2023/08/13 07:35:31;;;;;;;4.43;2.70;;;;;;;;;;4389550;32;70922;-58
2023/08/13 07:38:18;;;;;;;5.97;2.80;;;;;;;;;;4400150;32;71414;-59
2023/08/13 07:41:04;;;;;;;4.93;2.65;;;;;;;;;;4403109;32;66486;-57
2023/08/13 07:43:51;;;;;;;4.50;2.80;;;;;;;;;;4402869;32;71129;-58
2023/08/13 07:46:50;;;;;;;3.00;2.47;;;;;;;;;;3847472;37;43761;-58
2023/08/13 07:49:37;;;;;;;5.55;2.80;;;;;;;;;;4411308;32;59481;-57
2023/08/13 07:52:23;;;;;;;3.10;2.33;;;;;;;;;;4410994;32;70684;-58
2023/08/13 07:55:10;;;;;;;5.57;2.55;;;;;;;;;;4411335;32;69445;-58
2023/08/13 07:57:56;;;;;;;;;;;;;;;;;;4411643;32;67511;-58
2023/08/13 08:00:43;;;;;;;3.93;2.67;;;;;;;;;;4411627;32;72328;-59
2023/08/13 08:03:29;;;;;;;3.03;2.37;;;;;;;;;;4401930;32;66518;-58
2023/08/13 08:06:16;;;;;;;3.22;2.55;;;;;;;;;;4417923;32;66313;-57
2023/08/13 08:09:05;;;;;;;4.93;2.30;;;;;;;;;;4418396;32;59335;-58
2023/08/13 08:11:51;;;;;;;2.97;2.40;;;;;;;;;;4414576;32;70512;-59
2023/08/13 08:14:38;;;;;;;5.45;2.20;;;;;;;;;;4410238;32;65965;-57
2023/08/13 08:17:25;;;;;;;4.70;2.30;;;;;;;;;;4409206;32;68079;-58
2023/08/13 08:20:12;;;;;;;4.25;2.80;;;;;;;;;;4410991;32;59654;-58
2023/08/13 08:22:58;;;;;;;;;;;;;;;;;;4409550;32;69643;-57
2023/08/13 08:25:45;;;;;;;4.85;2.60;;;;;;;;;;4410599;32;68742;-58
2023/08/13 08:28:31;;;;;;;3.42;2.40;;;;;;;;;;4410789;32;67546;-58
2023/08/13 08:31:18;;;;;;;3.03;2.53;;;;;;;;;;4408701;32;71500;-58
2023/08/13 08:34:05;;;;;;;4.47;3.17;;;;;;;;;;4410725;32;65958;-58
2023/08/13 08:36:52;;;;;;;4.97;2.60;;;;;;;;;;4408652;32;69939;-58
2023/08/13 08:39:38;;;;;;;3.62;2.55;;;;;;;;;;4397569;32;69179;-58
2023/08/13 08:42:26;;;;;;;6.68;2.70;;;;;;;;;;4410266;32;70842;-58
2023/08/13 08:45:12;;;;;;;3.58;2.50;;;;;;;;;;4410266;32;65934;-59
2023/08/13 08:48:00;;;;;;;3.22;2.65;;;;;;;;;;4409270;32;67531;-58
2023/08/13 08:50:47;;;;;;;4.20;2.85;;;;;;;;;;4398528;32;60100;-58
2023/08/13 08:53:35;;;;;;;4.43;2.40;;;;;;;;;;4410206;32;69603;-58
2023/08/13 08:56:24;;;;;;;3.67;2.72;;;;;;;;;;4405844;32;68784;-59
2023/08/13 08:59:10;;;;;;;3.67;2.65;;;;;;;;;;4400003;32;66721;-57
2023/08/13 09:01:56;;;;;;;5.03;2.60;;;;;;;;;;4400291;32;59226;-57
2023/08/13 09:04:43;;;;;;;4.05;2.80;;;;;;;;;;4398020;32;71138;-58
2023/08/13 09:07:31;;;;;;;3.70;2.58;;;;;;;;;;4399858;32;69635;-58
2023/08/13 09:10:17;;;;;;;3.42;2.50;;;;;;;;;;4399953;32;67497;-58
2023/08/13 09:13:04;;;;;;;;;;;;;;;;;;4400181;32;70762;-58
2023/08/13 09:15:53;;;;;;;3.85;2.80;;;;;;;;;;4398280;32;66992;-58
2023/08/13 09:18:39;;;;;;;5.82;2.50;;;;;;;;;;4398489;32;68230;-58
2023/08/13 09:21:26;;;;;;;3.47;2.50;;;;;;;;;;4398180;32;60702;-58
2023/08/13 09:24:13;;;;;;;3.78;2.42;;;;;;;;;;4399513;32;70624;-57
2023/08/13 09:26:53;;;;;;;6.82;2.80;;;;;;;;;;3847442;37;43387;-59
2023/08/13 09:29:40;;;;;;;4.37;2.60;;;;;;;;;;4411408;32;59148;-58
2023/08/13 09:32:28;;;;;;;3.75;2.65;;;;;;;;;;4409166;32;71692;-58
2023/08/13 09:35:15;;;;;;;4.70;2.80;;;;;;;;;;4410959;32;69351;-58
2023/08/13 09:38:02;;;;;;;3.30;2.50;;;;;;;;;;4409801;32;68104;-58
2023/08/13 09:40:49;;;;;;;4.95;2.53;;;;;;;;;;4410803;32;71725;-58
2023/08/13 09:43:35;;;;;;;;;;;;;;;;;;4398550;32;65771;-58
2023/08/13 09:46:24;;;;;;;5.15;2.80;;;;;;;;;;4409745;32;66712;-57
2023/08/13 09:49:11;;;;;;;3.83;2.40;;;;;;;;;;4409693;32;60043;-58
2023/08/13 09:52:08;;;;;;;5.32;2.72;;;;;;;;;;4410654;32;71605;-58
2023/08/13 09:55:23;;;;;;;4.65;2.58;;;;;;;;;;4410676;32;64859;-58
2023/08/13 09:58:15;;;;;;;3.35;2.20;;;;;;;;;;4407175;32;67880;-58
2023/08/13 10:01:02;;;;;;;5.03;3.00;;;;;;;;;;4410881;32;60234;-58
2023/08/13 10:03:49;;;;;;;4.57;2.80;;;;;;;;;;4410521;32;69625;-58
2023/08/13 10:06:36;;;;;;;3.10;2.50;;;;;;;;;;4409123;32;69275;-58
2023/08/13 10:09:22;;;;;;;4.75;2.65;;;;;;;;;;4408698;32;68218;-58
2023/08/13 10:12:12;;;;;;;3.50;2.50;;;;;;;;;;4409078;32;71600;-59
2023/08/13 10:15:00;;;;;;;4.47;2.45;;;;;;;;;;4410966;32;65652;-59
2023/08/13 10:17:47;;;;;;;5.10;2.90;;;;;;;;;;4409087;32;68361;-58
2023/08/13 10:20:33;;;;;;;4.10;2.90;;;;;;;;;;4397494;32;68213;-58
2023/08/13 10:23:20;;;;;;;4.53;2.67;;;;;;;;;;4410314;32;72076;-58
2023/08/13 10:26:09;;;;;;;4.25;2.83;;;;;;;;;;4408562;32;65791;-57
2023/08/13 10:28:55;;;;;;;3.58;2.67;;;;;;;;;;4410280;32;66724;-58
2023/08/13 10:31:54;;;;;;;3.70;3.00;;;;;;;;;;4410647;32;60169;-58
2023/08/13 10:34:50;;;;;;;6.40;2.70;;;;;;;;;;4410277;32;70724;-59
2023/08/13 10:37:37;;;;;;;4.00;2.80;;;;;;;;;;4402238;32;69501;-59
2023/08/13 10:40:24;;;;;;;4.32;2.85;;;;;;;;;;4399923;32;67146;-58
2023/08/13 10:43:20;;;;;;;3.97;2.72;;;;;;;;;;4398384;32;59809;-57
2023/08/13 10:46:07;;;;;;;3.28;2.90;;;;;;;;;;4399815;32;70732;-59
2023/08/13 10:48:54;;;;;;;3.72;2.95;;;;;;;;;;4399905;32;69752;-59
2023/08/13 10:51:43;;;;;;;4.43;3.05;;;;;;;;;;4398512;32;67596;-58
2023/08/13 10:54:33;;;;;;;4.87;3.47;;;;;;;;;;4398415;32;71716;-58
2023/08/13 10:57:29;;;;;;;4.22;2.90;;;;;;;;;;4387408;32;65698;-58
2023/08/13 11:00:22;;;;;;;;;;;;;;;;;;4398613;32;66532;-58
2023/08/13 11:03:31;;;;;;;4.15;3.05;;;;;;;;;;4398283;32;60146;-58
2023/08/13 11:06:20;;;;;;;4.70;3.17;;;;;;;;;;4398061;32;69441;-58
2023/08/13 11:09:08;;;;;;;4.47;2.87;;;;;;;;;;4399790;32;65668;-58
2023/08/13 11:11:55;;;;;;;4.87;3.28;;;;;;;;;;4398333;32;68065;-58
2023/08/13 11:14:42;;;;;;;4.07;3.12;;;;;;;;;;4399742;32;60407;-58
2023/08/13 11:17:29;;;;;;;5.10;3.00;;;;;;;;;;4399462;32;70141;-58
2023/08/13 11:20:18;;;;;;;5.55;3.55;;;;;;;;;;4399608;32;69227;-57
2023/08/13 11:23:05;;;;;;;4.07;3.03;;;;;;;;;;4376021;32;67463;-58
2023/08/13 11:25:52;;;;;;;4.97;3.12;;;;;;;;;;4397577;32;72139;-58
2023/08/13 11:28:42;;;;;;;4.47;3.28;;;;;;;;;;4399432;32;65785;-58
2023/08/13 11:31:28;;;;;;;4.43;2.90;;;;;;;;;;4398353;32;67343;-58
2023/08/13 11:34:16;;;;;;;4.80;3.28;;;;;;;;;;4399528;32;66780;-58
2023/08/13 11:37:03;;;;;;;5.10;3.65;;;;;;;;;;4399231;32;71236;-58
2023/08/13 11:39:49;;;;;;;6.15;3.37;;;;;;;;;;4397999;32;65702;-59
2023/08/13 11:42:55;;;;;;;5.72;4.10;;;;;;;;;;4398088;32;67680;-58
2023/08/13 11:45:43;;;;;;;7.15;4.05;;;;;;;;;;4399307;32;60020;-57
2023/08/13 11:48:31;;;;;;;6.25;4.00;;;;;;;;;;4398281;32;70469;-58
2023/08/13 11:51:22;;;;;;;5.25;3.80;;;;;;;;;;4399001;32;69580;-58
2023/08/13 11:54:11;;;;;;;4.75;3.42;;;;;;;;;;4399056;32;67637;-58
2023/08/13 11:56:58;;;;;;;5.60;3.72;;;;;;;;;;4398003;32;60061;-59
2023/08/13 11:59:48;;;;;;;6.35;4.30;;;;;;;;;;4399043;32;69281;-58
2023/08/13 12:02:38;;;;;;;5.10;3.78;;;;;;;;;;4398874;32;69538;-58
2023/08/13 12:05:34;;;;;;;6.25;4.10;;;;;;;;;;4398809;32;66852;-59
2023/08/13 12:08:20;;;;;;;7.65;5.05;;;;;;;;;;4397527;32;71429;-58
2023/08/13 12:11:08;;;;;;;6.35;4.35;;;;;;;;;;4386347;32;66704;-58
2023/08/13 12:13:54;;;;;;;5.12;4.18;;;;;;;;;;4398868;32;66743;-58
2023/08/13 12:16:41;;;;;;;5.50;4.28;;;;;;;;;;4399097;32;60010;-58
2023/08/13 12:19:27;;;;;;;7.18;4.25;;;;;;;;;;4398509;32;69981;-58
2023/08/13 12:22:14;;;;;;;5.90;4.78;;;;;;;;;;4399028;32;64889;-58
2023/08/13 12:25:01;;;;;;;7.07;4.70;;;;;;;;;;4397179;32;66897;-59
2023/08/13 12:27:50;;;;;;;6.80;4.57;;;;;;;;;;4398801;32;59166;-58
2023/08/13 12:30:37;;;;;;;9.05;5.35;;;;;;;;;;4398563;32;70418;-58
2023/08/13 12:33:23;;;;;;;7.12;5.43;;;;;;;;;;4398647;32;68813;-58
2023/08/13 12:36:10;;;;;;;5.43;4.80;;;;;;;;;;4398462;32;67339;-58
2023/08/13 12:38:57;;;;;;;8.02;6.15;;;;;;;;;;4396682;32;72831;-58
2023/08/13 12:41:43;;;;;;;6.80;5.80;;;;;;;;;;4396923;32;65469;-58
2023/08/13 12:44:29;;;;;;;6.80;5.53;;;;;;;;;;4397343;32;66742;-59
2023/08/13 12:47:16;;;;;;;7.25;5.40;;;;;;;;;;4397145;32;67013;-58
2023/08/13 12:50:07;;;;;;;9.40;5.10;;;;;;;;;;4398249;32;70857;-58
2023/08/13 12:52:53;;;;;;;6.75;5.45;;;;;;;;;;4398374;32;65901;-58
2023/08/13 12:55:40;;;;;;;7.18;5.90;;;;;;;;;;4398596;32;66765;-58
2023/08/13 12:58:26;;;;;;;7.80;5.30;;;;;;;;;;4398621;32;60019;-58
2023/08/13 13:01:13;;;;;;;8.80;6.25;;;;;;;;;;4396187;32;71675;-58
2023/08/13 13:04:00;;;;;;;7.05;6.10;;;;;;;;;;4396990;32;69202;-58
2023/08/13 13:06:46;;;;;;;8.73;7.60;;;;;;;;;;4396961;32;66625;-58
2023/08/13 13:09:33;;;;;;;11.15;6.87;;;;;;;;;;4398384;32;70753;-58
2023/08/13 13:12:19;;;;;;;9.23;7.65;;;;;;;;;;4396926;32;69523;-58
2023/08/13 13:15:06;;;;;;;9.02;6.93;;;;;;;;;;4396830;32;69210;-58
2023/08/13 13:17:53;;;;;;;10.15;8.40;;;;;;;;;;4397981;32;66758;-58
2023/08/13 13:20:39;;;;;;;9.90;8.68;;;;;;;;;;4398117;32;71773;-58
2023/08/13 13:23:26;;;;;;;15.38;9.52;;;;;;;;;;4386280;32;64968;-58
2023/08/13 13:26:14;;;;;;;11.68;9.07;;;;;;;;;;4397557;32;67631;-58
2023/08/13 13:29:01;;;;;;;13.77;10.77;;;;;;;;;;4398458;32;59963;-57
2023/08/13 13:31:47;;;;;;;13.43;9.05;;;;;;;;;;4380909;32;71879;-58
2023/08/13 13:34:33;;;;;;;12.43;9.70;;;;;;;;;;4382663;32;69571;-58
2023/08/13 13:37:20;;;;;;;11.85;9.23;;;;;;;;;;4383004;32;67945;-59
2023/08/13 13:40:08;;;;;;;8.70;7.70;;;;;;;;;;4389301;32;59115;-58
2023/08/13 13:42:54;;;;;;;8.52;7.28;;;;;;;;;;4389669;32;70725;-59
2023/08/13 13:45:41;;;;;;;7.00;5.70;;;;;;;;;;4387713;32;68461;-64
2023/08/13 13:48:27;;;;;;;7.75;5.93;;;;;;;;;;4389593;32;68195;-59
2023/08/13 13:51:14;;;;;;;7.03;5.95;;;;;;;;;;4386603;32;70625;-58
2023/08/13 13:54:01;;;;;;;8.20;5.85;;;;;;;;;;4383440;32;64870;-58
2023/08/13 13:56:48;;;;;;;8.55;6.65;;;;;;;;;;4382569;32;66480;-58
2023/08/13 13:59:36;;;;;;;;;;;;;;;;;;4383072;32;59927;-58
2023/08/13 14:02:23;;;;;;;8.48;6.32;;;;;;;;;;4382715;32;71166;-58
2023/08/13 14:05:10;;;;;;;7.30;6.18;;;;;;;;;;4380915;32;67141;-58
2023/08/13 14:07:57;;;;;;;7.75;6.28;;;;;;;;;;4382310;32;67683;-59
2023/08/13 14:10:44;;;;;;;10.35;7.20;;;;;;;;;;4381414;32;59939;-58
2023/08/13 14:13:30;;;;;;;8.48;6.25;;;;;;;;;;4372887;32;70724;-58
2023/08/13 14:16:17;;;;;;;7.90;6.05;;;;;;;;;;4372237;32;69584;-58
2023/08/13 14:19:03;;;;;;;7.93;5.40;;;;;;;;;;4385246;32;66640;-58
2023/08/13 14:21:50;;;;;;;9.68;5.87;;;;;;;;;;4385257;32;71566;-58
2023/08/13 14:24:37;;;;;;;8.07;5.70;;;;;;;;;;4382756;32;70380;-59
2023/08/13 14:27:23;;;;;;;7.62;5.95;;;;;;;;;;4384716;32;69160;-58
2023/08/13 14:30:11;;;;;;;6.65;5.55;;;;;;;;;;4384668;32;67678;-58
2023/08/13 14:32:58;;;;;;;7.87;5.00;;;;;;;;;;4373020;32;71973;-58
2023/08/13 14:35:45;;;;;;;7.87;5.68;;;;;;;;;;4383715;32;65787;-58
2023/08/13 14:38:31;;;;;;;6.78;5.18;;;;;;;;;;4383584;32;67636;-58
2023/08/13 14:41:21;;;;;;;9.45;5.47;;;;;;;;;;4385195;32;59104;-58
2023/08/13 14:44:07;;;;;;;5.70;3.95;;;;;;;;;;4382871;32;69980;-59
2023/08/13 14:46:54;;;;;;;6.68;3.72;;;;;;;;;;4371949;32;69898;-58
2023/08/13 14:49:43;;;;;;;5.72;4.03;;;;;;;;;;4384466;32;66957;-58
2023/08/13 14:52:30;;;;;;;8.88;4.72;;;;;;;;;;4384926;32;60104;-59
2023/08/13 14:55:16;;;;;;;5.28;3.62;;;;;;;;;;4384440;32;70409;-58
2023/08/13 14:58:03;;;;;;;6.75;3.80;;;;;;;;;;4384671;32;69107;-59
2023/08/13 15:00:50;;;;;;;5.82;4.03;;;;;;;;;;4384468;32;66549;-59
2023/08/13 15:03:37;;;;;;;9.45;4.03;;;;;;;;;;4384279;32;71687;-58
2023/08/13 15:06:24;;;;;;;4.78;3.40;;;;;;;;;;4384653;32;64953;-59
2023/08/13 15:09:10;;;;;;;4.70;3.50;;;;;;;;;;4372547;32;67990;-58
2023/08/13 15:11:56;;;;;;;5.70;3.60;;;;;;;;;;4384439;32;58871;-58
2023/08/13 15:14:43;;;;;;;;;;;;;;;;;;4384500;32;71739;-58
2023/08/13 15:17:29;;;;;;;4.60;3.53;;;;;;;;;;4384444;32;66601;-58
2023/08/13 15:20:15;;;;;;;;;;;;;;;;;;4384647;32;67944;-58
2023/08/13 15:23:02;;;;;;;7.12;3.60;;;;;;;;;;4394036;32;59415;-57
2023/08/13 15:25:48;;;;;;;5.65;3.28;;;;;;;;;;4361347;32;70515;-58
2023/08/13 15:28:35;;;;;;;5.65;3.50;;;;;;;;;;4384166;27;69087;-58
2023/08/13 15:31:22;;;;;;;6.68;3.40;;;;;;;;;;4382837;32;67708;-59
2023/08/13 15:34:10;;;;;;;4.97;3.45;;;;;;;;;;4382679;32;71896;-58
2023/08/13 15:36:56;;;;;;;5.15;3.60;;;;;;;;;;4383052;32;65067;-58
2023/08/13 15:39:43;;;;;;;7.18;3.58;;;;;;;;;;4382943;32;69416;-58
2023/08/13 15:42:29;;;;;;;8.13;3.83;;;;;;;;;;4383910;32;67930;-59
2023/08/13 15:45:16;;;;;;;7.15;3.37;;;;;;;;;;4383893;32;70597;-58
2023/08/13 15:48:03;;;;;;;7.70;3.83;;;;;;;;;;4382550;32;64944;-58
2023/08/13 15:50:49;;;;;;;7.65;3.85;;;;;;;;;;4381822;32;67945;-59
2023/08/13 15:53:37;;;;;;;5.87;3.95;;;;;;;;;;4384110;32;59989;-58
2023/08/13 15:56:23;;;;;;;5.07;3.30;;;;;;;;;;4383896;32;70891;-58
2023/08/13 15:59:10;;;;;;;6.18;3.72;;;;;;;;;;4381925;32;70882;-58
2023/08/13 16:01:50;;;;;;;5.72;3.70;;;;;;;;;;3868749;36;43482;-57
2023/08/13 16:04:37;;;;;;;5.15;3.85;;;;;;;;;;4414684;32;58735;-58
2023/08/13 16:07:23;;;;;;;7.07;3.83;;;;;;;;;;4426409;32;70653;-57
2023/08/13 16:10:10;;;;;;;9.02;4.50;;;;;;;;;;4414469;32;68777;-58
2023/08/13 16:12:56;;;;;;;5.85;3.70;;;;;;;;;;4426290;32;67430;-58
2023/08/13 16:15:43;;;;;;;6.82;3.97;;;;;;;;;;4411276;32;72076;-58
2023/08/13 16:18:29;;;;;;;5.95;4.15;;;;;;;;;;4426328;32;65900;-59
2023/08/13 16:21:16;;;;;;;7.28;4.65;;;;;;;;;;4411404;32;67562;-58
2023/08/13 16:24:04;;;;;;;8.43;4.25;;;;;;;;;;4426372;32;60112;-58
2023/08/13 16:26:50;;;;;;;5.68;3.92;;;;;;;;;;4426103;32;70702;-58
2023/08/13 16:29:37;;;;;;;;;;;;;;;;;;4411643;32;66424;-58
2023/08/13 16:32:24;;;;;;;6.90;4.33;;;;;;;;;;4426337;32;67695;-58
2023/08/13 16:35:11;;;;;;;8.32;4.50;;;;;;;;;;4403394;32;58961;-58
2023/08/13 16:37:58;;;;;;;7.00;4.40;;;;;;;;;;4425928;32;70708;-58
2023/08/13 16:40:45;;;;;;;6.93;5.07;;;;;;;;;;4425976;32;69204;-58
2023/08/13 16:43:32;;;;;;;9.40;5.37;;;;;;;;;;4426028;32;67762;-58
2023/08/13 16:46:18;;;;;;;;;;;;;;;;;;4426172;32;71572;-59
2023/08/13 16:49:06;;;;;;;8.40;5.22;;;;;;;;;;4426508;32;65315;-58
2023/08/13 16:51:53;;;;;;;10.05;5.28;;;;;;;;;;4425922;32;69262;-58